Aérodrome :
LOGIN :

S'inscrire | Disclaimer

   EN    FR    IT 

 










Légende :    VFR   VFR Marginal   IFR   IFR Intensif   IFR Très Intensif
Visi : 
Plafond : 
>= 8 km
>= 3000ft
5 à 8 km
1000 à 3000 ft
1500m à 5 km
500 à 1000 ft
800 à 1500m
200 à 500 ft
< 800m
< 200 ft
Symboles :   Orages  Brouillard  Fortes neiges  Fortes précipitations  Vent > 20 kt
SIGMETs :   Divers  Orages  Givrage  Turbulence  Onde Orograph.  Cendres Volcan.






- Altitude de l'aérodrome : 622 ft
- Code IATA : BRS


EGGD - Bristol Int.

DERNIER METAR :
  • 262320Z AUTO VRB02KT 9999 NCD 14/13 Q1036

METARs EXPIRÉS :
  • 262250Z AUTO 27004KT 9999 NCD 14/12 Q1036
  • 262220Z AUTO 27003KT 9999 NCD 14/13 Q1036
  • 262150Z AUTO 24004KT 9999 NCD 14/13 Q1036
  • 262120Z AUTO 23004KT 9999 NCD 15/13 Q1036
  • 262050Z AUTO 24005KT 9999 NCD 15/13 Q1036

TAF TAF EGGD
Valide du 27 à 00h jusqu'au 28 à 00h UTC


262256Z 2700/2724 05006KT 9999 SCT045
TEMPO 2700/2703 8000
PROB30 2700/2703 4000 HZ
ATIS : +44 1275 473 666



MET'MAP, la Météo Aéronautique d'un coup d'oeil ! - Copyright ORBIFLY Décembre 2007 - Disclaimer

ORBIFLY MET'MAP TEAM :

Programmation & Développement : Alexandra Zaïnal
Sur une idée originale de : Baudouin d'Aumeries
Assistance à la programmation : Marc-Olivier Méhu
Soutien technique & logistique : Manuel Goepfert

Contact : metmap@orbifly.com




SOURCES & CREDITS :

   NOAA